This is the latest recevied weather packets stored in our database for station/object K2ATL. If no packets are shown the sender has not sent any weather packets the latest 10 day(s).
| Time | Temp. | Humidity | Pressure | Rain* | Wind** | Luminosity | Snow |
|---|---|---|---|---|---|---|---|
| 1777244587 | 22.78° C | 67% | 1098.5 hPa | 0 mm | - | 105 W/m² | - |
| 1777244284 | 22.78° C | 66% | 1098.6 hPa | 0 mm | - | 116 W/m² | - |
| 1777243982 | 22.78° C | 62% | 1098.6 hPa | 0 mm | - | 121 W/m² | - |
| 1777243678 | 22.78° C | 63% | 1098.6 hPa | 0 mm | - | 114 W/m² | - |
| 1777243376 | 23.33° C | 59% | 1098.6 hPa | 0 mm | - | 116 W/m² | - |
| 1777243071 | 22.78° C | 61% | 1098.4 hPa | 0 mm | - | 119 W/m² | - |
| 1777242768 | 23.33° C | 59% | 1098.3 hPa | 0 mm | - | 107 W/m² | - |
| 1777242464 | 22.78° C | 61% | 1098.1 hPa | 0 mm | - | 159 W/m² | - |
| 1777242161 | 22.78° C | 61% | 1098 hPa | 0 mm | - | 169 W/m² | - |
| 1777241858 | 22.78° C | 60% | 1098 hPa | 0 mm | - | 180 W/m² | - |
| 1777241556 | 22.78° C | 62% | 1098.1 hPa | 0 mm | - | 141 W/m² | - |
| 1777241253 | 22.78° C | 61% | 1098.1 hPa | 0 mm | - | 139 W/m² | - |
| 1777240950 | 22.78° C | 62% | 1098.1 hPa | 0 mm | - | 104 W/m² | - |
| 1777240648 | 22.78° C | 60% | 1098 hPa | 0 mm | - | 79 W/m² | - |
| 1777240346 | 22.78° C | 60% | 1097.8 hPa | 0 mm | - | 79 W/m² | - |
| 1777240043 | 23.33° C | 58% | 1097.9 hPa | 0 mm | - | 85 W/m² | - |
| 1777239741 | 23.33° C | 58% | 1097.8 hPa | 0 mm | - | 112 W/m² | - |
| 1777239437 | 23.89° C | 57% | 1097.7 hPa | 0 mm | - | 122 W/m² | - |
| 1777239134 | 23.89° C | 57% | 1097.8 hPa | 0 mm | - | 137 W/m² | - |
| 1777238831 | 27.78° C | 50% | 1097.7 hPa | 0 mm | - | 193 W/m² | - |
| 1777238528 | 25.56° C | 46% | 1097.7 hPa | 0 mm | - | 451 W/m² | - |
| 1777238224 | 25.56° C | 48% | 1097.6 hPa | 0 mm | - | 550 W/m² | - |
| 1777237921 | 26.11° C | 48% | 1097.7 hPa | 0 mm | - | 168 W/m² | - |
| 1777237617 | 25.56° C | 49% | 1097.6 hPa | 0 mm | - | 551 W/m² | - |
| 1777237315 | 23.89° C | 53% | 1097.6 hPa | 0 mm | - | 597 W/m² | - |
* Rain latest hour (hover to see other rain measurements)
** Current wind speed in m/s (hover to see current wind gust speed)